Time;durP1;ratioP1;P1;durP2;ratioP2;P2;SDS_P1;SDS_P2;PMS_P1;PMS_P2;Temp;Humidity;BMP_temperature;BMP_pressure;BME280_temperature;BME280_humidity;BME280_pressure;Samples;Min_cycle;Max_cycle;Signal;HPM_P1;HPM_P2
2021/10/19 00:02:29;;;;;;;37.80;14.75;;;;;;;;;;6240347;28;20415;-85
2021/10/19 00:05:31;;;;;;;40.33;15.50;;;;;;;;;;6197144;28;20057;-84
2021/10/19 00:08:32;;;;;;;40.72;15.73;;;;;;;;;;6236799;28;20042;-82
2021/10/19 00:11:34;;;;;;;45.95;17.25;;;;;;;;;;6238931;28;20132;-82
2021/10/19 00:14:36;;;;;;;50.58;17.52;;;;;;;;;;6212049;28;20046;-82
2021/10/19 00:17:39;;;;;;;47.70;16.92;;;;;;;;;;6201695;28;20045;-85
2021/10/19 00:20:41;;;;;;;46.83;17.00;;;;;;;;;;6212101;28;20181;-84
2021/10/19 00:23:43;;;;;;;54.10;18.75;;;;;;;;;;6218657;28;20067;-81
2021/10/19 00:26:44;;;;;;;57.58;20.55;;;;;;;;;;6218132;28;20044;-85
2021/10/19 00:29:46;;;;;;;59.80;19.90;;;;;;;;;;6205690;28;20050;-84
2021/10/19 00:32:48;;;;;;;52.22;19.98;;;;;;;;;;6224038;28;20507;-84
2021/10/19 00:35:49;;;;;;;52.67;18.33;;;;;;;;;;6230157;28;20051;-83
2021/10/19 00:38:51;;;;;;;53.17;18.73;;;;;;;;;;6218437;28;20125;-81
2021/10/19 00:41:52;;;;;;;40.90;15.65;;;;;;;;;;6220934;28;20113;-84
2021/10/19 00:44:54;;;;;;;40.08;15.75;;;;;;;;;;6223234;28;20523;-84
2021/10/19 00:47:56;;;;;;;44.75;15.85;;;;;;;;;;6220497;28;20113;-82
2021/10/19 00:50:58;;;;;;;43.00;16.25;;;;;;;;;;6221868;28;20048;-82
2021/10/19 00:54:00;;;;;;;46.63;17.65;;;;;;;;;;6201117;28;20140;-85
2021/10/19 00:57:01;;;;;;;49.85;17.27;;;;;;;;;;6216493;28;20045;-83
2021/10/19 01:00:05;;;;;;;49.67;17.27;;;;;;;;;;6211797;28;20061;-84
2021/10/19 01:03:07;;;;;;;47.83;17.73;;;;;;;;;;6213876;28;20046;-84
2021/10/19 01:06:09;;;;;;;46.17;17.08;;;;;;;;;;6229250;28;20050;-84
2021/10/19 01:09:11;;;;;;;44.03;16.80;;;;;;;;;;6240306;28;20045;-84
2021/10/19 01:12:13;;;;;;;57.33;19.77;;;;;;;;;;6243028;28;20439;-86
2021/10/19 01:15:17;;;;;;;63.22;20.10;;;;;;;;;;6221164;28;20037;-86
2021/10/19 01:18:19;;;;;;;69.65;21.65;;;;;;;;;;6220004;28;20419;-86
2021/10/19 01:21:21;;;;;;;63.67;21.27;;;;;;;;;;6212551;28;20054;-83
2021/10/19 01:24:23;;;;;;;63.45;20.67;;;;;;;;;;6214068;28;20052;-82
2021/10/19 01:27:25;;;;;;;64.37;20.53;;;;;;;;;;6216621;28;20514;-85
2021/10/19 01:30:27;;;;;;;64.88;21.55;;;;;;;;;;6225569;28;21068;-84
2021/10/19 01:33:29;;;;;;;70.65;22.70;;;;;;;;;;6191530;28;20049;-87
2021/10/19 01:36:31;;;;;;;61.70;21.08;;;;;;;;;;6231441;28;20067;-82
2021/10/19 01:39:32;;;;;;;64.50;20.20;;;;;;;;;;6195665;28;20083;-84
2021/10/19 01:42:34;;;;;;;59.25;19.75;;;;;;;;;;6216415;28;20042;-85
2021/10/19 01:45:36;;;;;;;58.72;20.05;;;;;;;;;;6225218;28;20049;-84
2021/10/19 01:48:40;;;;;;;68.63;20.30;;;;;;;;;;6201606;28;20049;-84
2021/10/19 01:51:41;;;;;;;;;;;;;;;;;;6217959;28;20172;-82
2021/10/19 01:54:43;;;;;;;64.53;20.45;;;;;;;;;;6216922;28;20004;-84
2021/10/19 01:57:44;;;;;;;65.90;20.52;;;;;;;;;;6220278;28;20551;-83
2021/10/19 02:00:46;;;;;;;70.47;21.23;;;;;;;;;;6216724;28;20042;-83
2021/10/19 02:03:48;;;;;;;50.22;18.02;;;;;;;;;;6204206;28;20129;-84
2021/10/19 02:06:50;;;;;;;55.92;18.98;;;;;;;;;;6230286;28;20049;-82
2021/10/19 02:09:51;;;;;;;52.15;17.75;;;;;;;;;;6238325;28;20079;-85
2021/10/19 02:12:56;;;;;;;68.07;21.67;;;;;;;;;;6228177;28;20130;-83
2021/10/19 02:15:58;;;;;;;64.15;21.98;;;;;;;;;;6224301;28;20041;-83
2021/10/19 02:19:00;;;;;;;66.43;20.10;;;;;;;;;;6229482;28;20081;-85
2021/10/19 02:22:01;;;;;;;64.13;20.13;;;;;;;;;;6238782;28;20187;-82
2021/10/19 02:25:04;;;;;;;62.10;19.55;;;;;;;;;;6223167;28;20045;-85
2021/10/19 02:28:06;;;;;;;59.77;19.17;;;;;;;;;;6216963;28;20045;-83
2021/10/19 02:31:10;;;;;;;54.42;18.58;;;;;;;;;;6236259;28;20056;-85
2021/10/19 02:34:12;;;;;;;54.20;18.92;;;;;;;;;;6221455;28;20041;-82
2021/10/19 02:37:14;;;;;;;51.08;19.25;;;;;;;;;;6240241;28;20038;-86
2021/10/19 02:40:17;;;;;;;62.15;19.38;;;;;;;;;;6240581;28;20120;-85
2021/10/19 02:43:18;;;;;;;64.68;19.45;;;;;;;;;;6229157;28;20835;-84
2021/10/19 02:46:21;;;;;;;65.03;21.25;;;;;;;;;;6237736;28;20041;-85
2021/10/19 02:49:23;;;;;;;70.68;22.65;;;;;;;;;;6216163;28;20120;-81
2021/10/19 02:52:24;;;;;;;82.72;24.25;;;;;;;;;;6222381;28;20883;-84
2021/10/19 02:55:26;;;;;;;88.53;25.20;;;;;;;;;;6217844;28;20392;-85
2021/10/19 02:58:28;;;;;;;76.72;21.35;;;;;;;;;;6213823;28;20499;-85
2021/10/19 03:01:29;;;;;;;77.68;23.75;;;;;;;;;;6254606;28;20053;-85
2021/10/19 03:04:31;;;;;;;61.70;21.58;;;;;;;;;;6222355;28;20046;-84
2021/10/19 03:07:33;;;;;;;57.65;19.55;;;;;;;;;;6225044;28;20041;-84
2021/10/19 03:10:34;;;;;;;55.47;18.92;;;;;;;;;;6248274;28;20043;-84
2021/10/19 03:13:36;;;;;;;54.22;18.50;;;;;;;;;;6245281;28;20071;-84
2021/10/19 03:16:48;;;;;;;52.88;19.58;;;;;;;;;;6247077;28;20050;-85
2021/10/19 03:19:50;;;;;;;56.95;19.92;;;;;;;;;;6219348;28;20045;-83
2021/10/19 03:22:52;;;;;;;59.25;19.75;;;;;;;;;;6230424;28;20099;-86
2021/10/19 03:25:53;;;;;;;65.00;20.92;;;;;;;;;;6227704;28;20052;-83
2021/10/19 03:28:55;;;;;;;65.88;20.90;;;;;;;;;;6222017;28;20415;-84
2021/10/19 03:31:56;;;;;;;60.08;20.45;;;;;;;;;;6235726;28;20080;-86
2021/10/19 03:34:58;;;;;;;67.93;21.95;;;;;;;;;;6231661;28;20124;-86
2021/10/19 03:38:00;;;;;;;61.08;21.67;;;;;;;;;;6217814;28;20140;-85
2021/10/19 03:41:02;;;;;;;61.75;19.95;;;;;;;;;;6223412;28;20185;-83
2021/10/19 03:44:04;;;;;;;71.47;23.58;;;;;;;;;;6215954;28;20044;-84
2021/10/19 03:47:05;;;;;;;63.40;21.33;;;;;;;;;;6220398;28;20053;-85
2021/10/19 03:50:08;;;;;;;63.47;21.60;;;;;;;;;;6206156;28;20055;-85
2021/10/19 03:53:11;;;;;;;61.50;20.40;;;;;;;;;;6244177;28;20092;-85
2021/10/19 03:56:12;;;;;;;58.80;21.67;;;;;;;;;;6249353;28;20045;-85
2021/10/19 03:59:14;;;;;;;64.07;22.10;;;;;;;;;;6232520;28;20533;-84
2021/10/19 04:02:16;;;;;;;58.92;21.20;;;;;;;;;;6225241;28;20050;-84
2021/10/19 04:05:17;;;;;;;55.80;20.95;;;;;;;;;;6216207;28;20114;-83
2021/10/19 04:08:19;;;;;;;58.97;21.70;;;;;;;;;;6248380;28;20114;-83
2021/10/19 04:11:21;;;;;;;57.13;20.25;;;;;;;;;;6246781;28;20049;-84
2021/10/19 04:14:22;;;;;;;59.65;21.08;;;;;;;;;;6215161;28;20495;-83
2021/10/19 04:17:24;;;;;;;59.70;20.48;;;;;;;;;;6241225;28;20572;-85
2021/10/19 04:20:26;;;;;;;58.05;20.88;;;;;;;;;;6218460;28;20045;-84
2021/10/19 04:23:27;;;;;;;58.22;19.98;;;;;;;;;;6242759;28;20527;-85
2021/10/19 04:26:29;;;;;;;54.05;20.95;;;;;;;;;;6228321;28;20192;-82
2021/10/19 04:29:31;;;;;;;57.30;20.73;;;;;;;;;;6235580;28;20073;-83
2021/10/19 04:32:33;;;;;;;51.05;19.95;;;;;;;;;;6243396;28;20052;-83
2021/10/19 04:35:34;;;;;;;59.40;20.58;;;;;;;;;;6211945;28;20041;-84
2021/10/19 04:38:36;;;;;;;57.67;19.75;;;;;;;;;;6219092;28;20044;-83
2021/10/19 04:41:43;;;;;;;52.53;20.40;;;;;;;;;;6213464;28;20042;-85
2021/10/19 04:44:48;;;;;;;58.10;21.10;;;;;;;;;;6196269;28;20088;-85
2021/10/19 04:47:50;;;;;;;55.80;21.55;;;;;;;;;;6215482;28;20109;-84
2021/10/19 04:50:51;;;;;;;57.60;21.23;;;;;;;;;;6220637;28;20042;-83
2021/10/19 04:53:53;;;;;;;51.85;20.38;;;;;;;;;;6216268;28;20045;-84
2021/10/19 04:56:54;;;;;;;56.80;20.42;;;;;;;;;;6217051;28;20042;-83
2021/10/19 04:59:56;;;;;;;51.95;20.70;;;;;;;;;;6234005;28;20065;-84
2021/10/19 05:02:57;;;;;;;58.38;21.25;;;;;;;;;;6236956;28;20089;-82
2021/10/19 05:05:59;;;;;;;59.92;21.77;;;;;;;;;;6236716;28;20144;-85
2021/10/19 05:09:01;;;;;;;58.22;21.40;;;;;;;;;;6242637;28;20151;-84
2021/10/19 05:12:03;;;;;;;60.42;19.75;;;;;;;;;;6223249;28;20079;-84
2021/10/19 05:15:05;;;;;;;56.05;20.95;;;;;;;;;;6215111;28;20065;-85
2021/10/19 05:18:06;;;;;;;56.88;21.02;;;;;;;;;;6214532;28;20054;-82
2021/10/19 05:21:08;;;;;;;58.60;22.25;;;;;;;;;;6231074;28;20430;-82
2021/10/19 05:24:10;;;;;;;50.90;20.52;;;;;;;;;;6217721;28;20048;-82
2021/10/19 05:27:11;;;;;;;57.10;21.55;;;;;;;;;;6216438;28;20042;-83
2021/10/19 05:30:13;;;;;;;53.03;22.17;;;;;;;;;;6213412;28;20431;-81
2021/10/19 05:33:15;;;;;;;52.65;21.10;;;;;;;;;;6199671;28;20046;-81
2021/10/19 05:36:16;;;;;;;50.10;20.60;;;;;;;;;;6215028;28;20038;-83
2021/10/19 05:39:18;;;;;;;53.70;22.63;;;;;;;;;;6219342;28;20034;-84
2021/10/19 05:42:20;;;;;;;48.83;20.60;;;;;;;;;;6217767;28;20048;-83
2021/10/19 05:45:22;;;;;;;50.43;20.23;;;;;;;;;;6207263;28;20313;-83
2021/10/19 05:48:23;;;;;;;52.47;22.95;;;;;;;;;;6232058;28;20102;-82
2021/10/19 05:51:25;;;;;;;53.35;22.42;;;;;;;;;;6239790;28;20147;-84
2021/10/19 05:54:27;;;;;;;54.28;21.63;;;;;;;;;;6243372;28;20051;-83
2021/10/19 05:57:29;;;;;;;56.78;23.65;;;;;;;;;;6233605;28;20121;-83
2021/10/19 06:00:31;;;;;;;53.97;19.83;;;;;;;;;;6220028;28;20049;-82
2021/10/19 06:03:33;;;;;;;54.92;19.50;;;;;;;;;;6212075;28;20042;-84
2021/10/19 06:06:39;;;;;;;49.55;21.05;;;;;;;;;;6217866;28;20038;-81
2021/10/19 06:09:41;;;;;;;47.90;20.85;;;;;;;;;;6241914;28;20056;-84
2021/10/19 06:12:43;;;;;;;43.92;19.33;;;;;;;;;;6227618;28;20073;-84
2021/10/19 06:15:48;;;;;;;49.70;19.95;;;;;;;;;;6221348;28;20392;-84
2021/10/19 06:18:49;;;;;;;46.78;20.85;;;;;;;;;;6207116;28;20043;-85
2021/10/19 06:21:51;;;;;;;44.33;18.65;;;;;;;;;;6200963;28;20038;-81
2021/10/19 06:24:53;;;;;;;46.20;20.70;;;;;;;;;;6200246;28;20047;-80
2021/10/19 06:27:55;;;;;;;52.67;21.80;;;;;;;;;;6214863;28;20442;-80
2021/10/19 06:30:56;;;;;;;41.55;19.15;;;;;;;;;;6225263;28;20064;-82
2021/10/19 06:33:58;;;;;;;48.13;18.90;;;;;;;;;;6222330;28;20050;-82
2021/10/19 06:37:00;;;;;;;44.03;19.88;;;;;;;;;;6226693;28;20050;-84
2021/10/19 06:40:04;;;;;;;45.15;19.77;;;;;;;;;;6220491;28;20046;-82
2021/10/19 06:43:06;;;;;;;44.55;18.88;;;;;;;;;;6218247;28;20133;-85
2021/10/19 06:46:08;;;;;;;43.42;18.42;;;;;;;;;;6220373;28;20139;-82
2021/10/19 06:49:11;;;;;;;37.05;16.65;;;;;;;;;;6202710;28;20050;-82
2021/10/19 06:52:12;;;;;;;39.80;18.33;;;;;;;;;;6234971;28;20100;-83
2021/10/19 06:55:15;;;;;;;42.90;21.42;;;;;;;;;;6241504;28;20037;-80
2021/10/19 06:58:17;;;;;;;37.17;18.27;;;;;;;;;;6232555;28;20045;-83
2021/10/19 07:01:19;;;;;;;38.30;18.55;;;;;;;;;;6247644;28;20388;-82
2021/10/19 07:04:21;;;;;;;36.95;18.70;;;;;;;;;;6225511;28;20080;-84
2021/10/19 07:07:23;;;;;;;40.58;19.48;;;;;;;;;;6245220;28;20046;-84
2021/10/19 07:10:24;;;;;;;40.70;19.80;;;;;;;;;;6239070;28;20046;-85
2021/10/19 07:13:26;;;;;;;39.65;19.27;;;;;;;;;;6240303;28;20163;-84
2021/10/19 07:16:29;;;;;;;44.30;19.90;;;;;;;;;;6242051;28;20065;-82
2021/10/19 07:19:31;;;;;;;36.72;17.27;;;;;;;;;;6195876;28;20698;-83
2021/10/19 07:22:32;;;;;;;37.03;17.05;;;;;;;;;;6243506;28;20038;-83
2021/10/19 07:25:34;;;;;;;42.55;18.65;;;;;;;;;;6242178;28;20042;-82
2021/10/19 07:28:35;;;;;;;41.58;18.08;;;;;;;;;;6226279;28;20071;-81
2021/10/19 07:31:37;;;;;;;43.55;18.52;;;;;;;;;;6213418;28;20113;-85
2021/10/19 07:34:39;;;;;;;37.95;17.02;;;;;;;;;;6204694;28;20070;-81
2021/10/19 07:37:42;;;;;;;43.97;18.55;;;;;;;;;;6194532;28;20047;-82
2021/10/19 07:40:43;;;;;;;40.47;18.67;;;;;;;;;;6192296;28;20048;-81
2021/10/19 07:43:45;;;;;;;42.63;19.30;;;;;;;;;;6208029;28;20108;-83
2021/10/19 07:46:46;;;;;;;42.00;19.33;;;;;;;;;;6230110;28;20449;-80
2021/10/19 07:49:48;;;;;;;42.20;19.17;;;;;;;;;;6209020;28;20046;-82
2021/10/19 07:52:51;;;;;;;42.40;17.65;;;;;;;;;;6223931;28;20042;-81
2021/10/19 07:55:53;;;;;;;37.88;18.13;;;;;;;;;;6222623;28;20133;-81
2021/10/19 07:58:56;;;;;;;39.08;18.15;;;;;;;;;;6218876;28;20046;-81
2021/10/19 08:02:01;;;;;;;40.35;17.67;;;;;;;;;;6222399;28;20046;-81
2021/10/19 08:05:14;;;;;;;40.33;18.88;;;;;;;;;;6214882;28;20042;-83
2021/10/19 08:08:17;;;;;;;38.92;18.08;;;;;;;;;;6207682;28;20070;-82
2021/10/19 08:11:18;;;;;;;37.77;17.53;;;;;;;;;;6214931;28;20136;-82
2021/10/19 08:14:20;;;;;;;40.70;17.95;;;;;;;;;;6214033;28;20129;-83
2021/10/19 08:17:21;;;;;;;38.95;17.60;;;;;;;;;;6212031;28;20641;-82
2021/10/19 08:20:23;;;;;;;41.65;17.52;;;;;;;;;;6201336;28;20042;-85
2021/10/19 08:23:27;;;;;;;38.15;17.02;;;;;;;;;;6218360;28;20078;-84
2021/10/19 08:26:30;;;;;;;37.72;17.13;;;;;;;;;;6196708;28;20042;-85
2021/10/19 08:29:31;;;;;;;40.03;17.65;;;;;;;;;;6204381;28;20042;-81
2021/10/19 08:32:33;;;;;;;39.53;17.45;;;;;;;;;;6225605;28;20579;-85
2021/10/19 08:35:35;;;;;;;34.70;16.38;;;;;;;;;;6228792;28;20049;-82
2021/10/19 08:38:41;;;;;;;37.10;15.68;;;;;;;;;;6246982;28;20068;-82
2021/10/19 08:41:43;;;;;;;36.20;16.20;;;;;;;;;;6245256;28;20072;-85
2021/10/19 08:44:45;;;;;;;46.30;27.73;;;;;;;;;;6247575;28;20042;-84
2021/10/19 08:47:48;;;;;;;41.22;17.42;;;;;;;;;;6224887;28;20136;-86
2021/10/19 08:50:50;;;;;;;38.95;18.48;;;;;;;;;;6255075;28;20053;-84
2021/10/19 08:53:51;;;;;;;38.42;18.85;;;;;;;;;;6208171;28;20046;-84
2021/10/19 08:56:54;;;;;;;40.00;18.65;;;;;;;;;;6217014;28;20450;-84
2021/10/19 09:00:04;;;;;;;58.85;24.38;;;;;;;;;;6188156;28;20102;-83
2021/10/19 09:03:06;;;;;;;39.00;17.70;;;;;;;;;;6207557;28;20136;-83
2021/10/19 09:06:11;;;;;;;45.25;18.10;;;;;;;;;;6246370;28;20072;-84
2021/10/19 09:09:16;;;;;;;37.05;17.73;;;;;;;;;;6247239;28;20103;-83
2021/10/19 09:12:22;;;;;;;37.63;18.25;;;;;;;;;;6243961;28;20041;-84
2021/10/19 09:15:26;;;;;;;35.55;17.52;;;;;;;;;;6198820;28;20089;-85
2021/10/19 09:18:27;;;;;;;39.95;19.88;;;;;;;;;;6200090;28;20048;-83
2021/10/19 09:21:31;;;;;;;39.50;18.33;;;;;;;;;;6223783;28;20404;-84
2021/10/19 09:24:44;;;;;;;35.22;15.70;;;;;;;;;;6221562;28;20069;-83
2021/10/19 09:27:46;;;;;;;36.08;19.02;;;;;;;;;;6214134;28;20581;-80
2021/10/19 09:30:50;;;;;;;36.78;17.63;;;;;;;;;;6232966;28;20059;-85
2021/10/19 09:33:58;;;;;;;34.80;16.60;;;;;;;;;;6233429;28;20056;-85
2021/10/19 09:37:01;;;;;;;42.97;19.83;;;;;;;;;;6241691;28;20128;-86
2021/10/19 09:40:09;;;;;;;30.58;15.38;;;;;;;;;;6229378;28;20107;-83
2021/10/19 09:43:16;;;;;;;29.45;13.50;;;;;;;;;;6226894;28;20098;-81
2021/10/19 09:46:23;;;;;;;35.75;17.10;;;;;;;;;;6232118;28;20400;-85
2021/10/19 09:49:27;;;;;;;24.13;13.15;;;;;;;;;;6220459;28;20050;-82
2021/10/19 09:52:29;;;;;;;28.63;14.70;;;;;;;;;;6227898;28;20045;-84
2021/10/19 09:55:32;;;;;;;28.55;12.63;;;;;;;;;;6224248;28;20120;-84
2021/10/19 09:58:35;;;;;;;20.63;11.80;;;;;;;;;;6202962;28;20064;-82
2021/10/19 10:01:40;;;;;;;28.38;15.07;;;;;;;;;;6197624;28;20050;-80
2021/10/19 10:04:43;;;;;;;17.90;10.80;;;;;;;;;;6211219;28;20044;-82
2021/10/19 10:07:48;;;;;;;20.17;10.17;;;;;;;;;;6244851;28;20041;-82
2021/10/19 10:10:55;;;;;;;20.02;11.18;;;;;;;;;;6238221;28;20107;-84
2021/10/19 10:13:59;;;;;;;26.10;13.18;;;;;;;;;;6192738;28;20077;-80
2021/10/19 10:17:08;;;;;;;28.90;15.60;;;;;;;;;;6193932;28;20066;-82
2021/10/19 10:20:11;;;;;;;19.25;10.65;;;;;;;;;;6216601;28;20525;-83
2021/10/19 10:23:26;;;;;;;17.52;9.82;;;;;;;;;;6240173;28;20119;-82
2021/10/19 10:26:32;;;;;;;21.30;11.43;;;;;;;;;;6260109;28;20045;-83
2021/10/19 10:29:52;;;;;;;15.95;10.00;;;;;;;;;;6271282;28;20037;-82
2021/10/19 10:33:05;;;;;;;18.48;9.02;;;;;;;;;;6262312;28;20110;-82
2021/10/19 10:36:09;;;;;;;13.85;7.53;;;;;;;;;;6243782;28;20175;-81
2021/10/19 10:39:11;;;;;;;14.32;7.85;;;;;;;;;;6264546;28;20044;-80
2021/10/19 10:42:15;;;;;;;13.65;8.30;;;;;;;;;;6240312;28;20044;-80
2021/10/19 10:45:20;;;;;;;29.05;16.42;;;;;;;;;;6267936;28;20063;-84
2021/10/19 10:48:22;;;;;;;4.60;3.90;;;;;;;;;;6260122;28;20056;-80
2021/10/19 10:51:33;;;;;;;5.90;4.30;;;;;;;;;;6249889;28;20049;-85
2021/10/19 10:54:35;;;;;;;12.25;7.72;;;;;;;;;;6264861;28;20498;-83
2021/10/19 10:57:46;;;;;;;8.13;6.22;;;;;;;;;;6246575;28;20048;-84
2021/10/19 11:00:47;;;;;;;5.05;3.97;;;;;;;;;;6195729;28;20050;-82
2021/10/19 11:03:52;;;;;;;7.82;5.03;;;;;;;;;;6187789;28;20426;-84
2021/10/19 11:06:55;;;;;;;5.85;4.20;;;;;;;;;;6209083;28;20146;-82
2021/10/19 11:10:05;;;;;;;3.70;3.30;;;;;;;;;;6222026;28;20598;-83
2021/10/19 11:13:07;;;;;;;4.68;3.80;;;;;;;;;;6219932;28;20073;-85
2021/10/19 11:16:09;;;;;;;4.53;3.40;;;;;;;;;;6217781;28;20128;-85
2021/10/19 11:19:29;;;;;;;4.55;3.90;;;;;;;;;;6219235;28;20456;-84
2021/10/19 11:22:36;;;;;;;4.47;3.97;;;;;;;;;;6235614;28;20414;-79
2021/10/19 11:25:38;;;;;;;4.70;3.75;;;;;;;;;;6223503;28;20042;-82
2021/10/19 11:28:44;;;;;;;4.43;3.53;;;;;;;;;;6232760;28;20045;-82
2021/10/19 11:31:47;;;;;;;19.95;15.43;;;;;;;;;;6266566;28;20120;-83
2021/10/19 11:34:49;;;;;;;9.43;7.20;;;;;;;;;;6235998;28;20120;-85
2021/10/19 11:37:50;;;;;;;9.52;6.80;;;;;;;;;;6228982;28;20042;-85
2021/10/19 11:40:52;;;;;;;12.13;8.98;;;;;;;;;;6221171;28;20046;-84
2021/10/19 11:43:59;;;;;;;9.18;8.13;;;;;;;;;;6250534;28;20729;-84
2021/10/19 11:47:03;;;;;;;12.50;8.20;;;;;;;;;;6263383;28;20137;-82
2021/10/19 11:50:05;;;;;;;5.50;4.40;;;;;;;;;;6239200;28;20056;-85
2021/10/19 11:53:07;;;;;;;6.70;4.67;;;;;;;;;;6221454;28;20050;-82
2021/10/19 11:56:10;;;;;;;6.40;4.28;;;;;;;;;;6223602;28;20045;-83
2021/10/19 11:59:13;;;;;;;8.48;6.35;;;;;;;;;;6216536;28;20058;-88
2021/10/19 12:02:15;;;;;;;;;;;;;;;;;;6206553;28;20056;-83
2021/10/19 12:05:18;;;;;;;9.15;7.03;;;;;;;;;;6207156;28;19921;-87
2021/10/19 12:08:20;;;;;;;32.17;19.05;;;;;;;;;;6207011;28;20046;-82
2021/10/19 12:11:24;;;;;;;27.00;16.13;;;;;;;;;;6189328;28;20054;-82
2021/10/19 12:14:30;;;;;;;25.40;14.35;;;;;;;;;;6208106;28;20081;-84
2021/10/19 12:17:32;;;;;;;22.42;15.95;;;;;;;;;;6205679;28;20529;-85
2021/10/19 12:20:42;;;;;;;10.98;9.88;;;;;;;;;;6225854;28;20038;-85
2021/10/19 12:23:52;;;;;;;6.75;5.57;;;;;;;;;;6205076;28;20049;-83
2021/10/19 12:27:02;;;;;;;7.90;5.65;;;;;;;;;;6209193;28;20042;-87
2021/10/19 12:30:37;;;;;;;21.23;14.38;;;;;;;;;;6202904;28;20149;-81
2021/10/19 12:33:39;;;;;;;10.48;6.90;;;;;;;;;;6226960;28;20133;-83
2021/10/19 12:36:42;;;;;;;8.85;6.50;;;;;;;;;;6228914;28;20049;-86
2021/10/19 12:39:44;;;;;;;7.82;5.68;;;;;;;;;;6238770;28;20055;-82
2021/10/19 12:42:46;;;;;;;7.22;5.82;;;;;;;;;;6223492;28;20042;-84
2021/10/19 12:45:48;;;;;;;18.47;14.20;;;;;;;;;;6243264;28;20054;-83
2021/10/19 12:48:55;;;;;;;3.80;3.10;;;;;;;;;;6232478;28;20048;-84
2021/10/19 12:51:57;;;;;;;6.90;5.47;;;;;;;;;;6245145;28;20087;-83
2021/10/19 12:54:59;;;;;;;7.00;6.30;;;;;;;;;;6243103;28;20057;-84
2021/10/19 12:58:01;;;;;;;7.18;5.25;;;;;;;;;;6234004;28;20046;-85
2021/10/19 13:01:04;;;;;;;19.48;13.50;;;;;;;;;;6219993;28;20106;-84
2021/10/19 13:04:06;;;;;;;7.03;4.85;;;;;;;;;;6232206;28;20115;-81
2021/10/19 13:07:07;;;;;;;15.38;10.18;;;;;;;;;;6241604;28;20045;-81
2021/10/19 13:10:09;;;;;;;8.48;5.50;;;;;;;;;;6248832;28;20099;-83
2021/10/19 13:13:11;;;;;;;9.18;6.53;;;;;;;;;;6255369;28;20041;-82
2021/10/19 13:16:14;;;;;;;9.90;6.78;;;;;;;;;;6242646;28;20045;-85
2021/10/19 13:19:15;;;;;;;13.03;7.47;;;;;;;;;;6230800;28;20077;-85
2021/10/19 13:22:17;;;;;;;8.55;5.22;;;;;;;;;;6218503;28;20042;-83
2021/10/19 13:25:18;;;;;;;11.48;6.60;;;;;;;;;;6220629;28;20034;-84
2021/10/19 13:28:20;;;;;;;10.25;6.47;;;;;;;;;;6235847;28;20071;-85
2021/10/19 13:31:22;;;;;;;11.88;6.75;;;;;;;;;;6234125;28;20038;-85
2021/10/19 13:34:27;;;;;;;14.52;10.10;;;;;;;;;;6242673;28;20038;-86
2021/10/19 13:37:29;;;;;;;18.67;10.43;;;;;;;;;;6243040;28;20050;-84
2021/10/19 13:40:31;;;;;;;44.38;22.13;;;;;;;;;;6239337;28;20127;-85
2021/10/19 13:43:32;;;;;;;40.38;20.85;;;;;;;;;;6236503;28;20136;-84
2021/10/19 13:46:34;;;;;;;26.17;14.93;;;;;;;;;;6242473;28;20041;-83
2021/10/19 13:49:36;;;;;;;15.98;9.15;;;;;;;;;;6241317;28;20124;-85
2021/10/19 13:52:38;;;;;;;9.73;6.65;;;;;;;;;;6232908;28;20049;-82
2021/10/19 13:55:40;;;;;;;16.95;9.25;;;;;;;;;;6242792;28;20048;-86
2021/10/19 13:58:41;;;;;;;21.25;12.18;;;;;;;;;;6238063;28;20048;-86
2021/10/19 14:01:43;;;;;;;23.65;14.20;;;;;;;;;;6268383;28;20047;-84
2021/10/19 14:04:45;;;;;;;12.50;6.95;;;;;;;;;;6258413;28;20061;-83
2021/10/19 14:07:47;;;;;;;26.60;14.32;;;;;;;;;;6261859;28;20143;-84
2021/10/19 14:10:48;;;;;;;20.25;10.25;;;;;;;;;;6267299;28;20178;-85
2021/10/19 14:13:56;;;;;;;20.55;11.07;;;;;;;;;;6241792;28;20069;-86
2021/10/19 14:16:57;;;;;;;13.98;8.38;;;;;;;;;;6247246;28;20542;-85
2021/10/19 14:19:59;;;;;;;17.08;9.73;;;;;;;;;;6237197;28;20910;-86
2021/10/19 14:23:01;;;;;;;19.85;12.77;;;;;;;;;;6235892;28;20681;-85
2021/10/19 14:26:03;;;;;;;16.13;9.38;;;;;;;;;;6244797;28;20537;-86
2021/10/19 14:29:05;;;;;;;12.83;7.80;;;;;;;;;;6249831;28;20041;-86
2021/10/19 14:32:08;;;;;;;15.43;8.77;;;;;;;;;;6241404;28;20564;-83
2021/10/19 14:35:09;;;;;;;12.93;8.77;;;;;;;;;;6237925;28;20542;-79
2021/10/19 14:38:11;;;;;;;16.17;11.27;;;;;;;;;;6266643;28;20053;-80
2021/10/19 14:41:14;;;;;;;15.80;10.20;;;;;;;;;;6267401;28;20128;-79
2021/10/19 14:44:15;;;;;;;15.27;8.73;;;;;;;;;;6253036;28;20047;-80
2021/10/19 14:47:17;;;;;;;16.05;9.02;;;;;;;;;;6245415;28;20128;-81
2021/10/19 14:50:19;;;;;;;13.43;8.43;;;;;;;;;;6217085;28;20052;-80
2021/10/19 14:53:20;;;;;;;13.73;8.63;;;;;;;;;;6216266;28;20057;-79
2021/10/19 14:56:22;;;;;;;27.35;16.95;;;;;;;;;;6209911;28;20328;-79
2021/10/19 14:59:24;;;;;;;14.05;9.05;;;;;;;;;;6215816;28;20111;-80
2021/10/19 15:02:26;;;;;;;14.68;8.63;;;;;;;;;;6218096;28;20250;-78
2021/10/19 15:05:29;;;;;;;22.85;11.95;;;;;;;;;;6205004;28;20077;-86
2021/10/19 15:08:31;;;;;;;18.67;11.00;;;;;;;;;;6199143;28;20056;-85
2021/10/19 15:11:33;;;;;;;18.85;11.05;;;;;;;;;;6212753;28;20050;-85
2021/10/19 15:14:34;;;;;;;17.73;10.70;;;;;;;;;;6227906;28;20042;-86
2021/10/19 15:17:36;;;;;;;20.23;11.13;;;;;;;;;;6221417;28;20562;-86
2021/10/19 15:20:38;;;;;;;22.17;11.73;;;;;;;;;;6229736;28;20108;-83
2021/10/19 15:23:40;;;;;;;18.70;12.02;;;;;;;;;;6236255;28;20088;-83
2021/10/19 15:26:42;;;;;;;17.20;10.55;;;;;;;;;;6212986;28;20057;-82
2021/10/19 15:29:44;;;;;;;22.38;12.60;;;;;;;;;;6215071;28;20061;-82
2021/10/19 15:32:47;;;;;;;16.55;10.18;;;;;;;;;;6200051;28;20052;-81
2021/10/19 15:35:49;;;;;;;18.75;11.30;;;;;;;;;;6197291;28;20130;-83
2021/10/19 15:38:50;;;;;;;18.05;10.88;;;;;;;;;;6204901;28;20054;-82
2021/10/19 15:41:52;;;;;;;26.50;14.85;;;;;;;;;;6198165;28;20095;-85
2021/10/19 15:44:54;;;;;;;24.05;13.98;;;;;;;;;;6203486;28;20180;-85
2021/10/19 15:47:55;;;;;;;30.75;17.00;;;;;;;;;;6208905;28;20050;-83
2021/10/19 15:50:57;;;;;;;25.85;15.10;;;;;;;;;;6223942;28;20187;-85
2021/10/19 15:53:58;;;;;;;23.20;12.98;;;;;;;;;;6239876;28;20510;-84
2021/10/19 15:57:01;;;;;;;22.80;13.35;;;;;;;;;;6221653;28;20089;-83
2021/10/19 16:00:07;;;;;;;25.10;13.10;;;;;;;;;;6211045;28;20139;-85
2021/10/19 16:03:09;;;;;;;22.70;12.25;;;;;;;;;;6198380;28;20678;-82
2021/10/19 16:06:11;;;;;;;20.38;12.65;;;;;;;;;;6205117;28;20081;-81
2021/10/19 16:09:13;;;;;;;22.25;12.50;;;;;;;;;;6222796;28;20042;-81
2021/10/19 16:12:20;;;;;;;22.90;12.48;;;;;;;;;;6221625;28;20693;-81
2021/10/19 16:15:22;;;;;;;21.95;12.90;;;;;;;;;;6243745;28;20073;-85
2021/10/19 16:18:23;;;;;;;22.10;12.85;;;;;;;;;;6237362;28;20172;-82
2021/10/19 16:21:25;;;;;;;20.85;12.48;;;;;;;;;;6225018;28;20041;-83
2021/10/19 16:24:26;;;;;;;22.50;13.02;;;;;;;;;;6215095;28;20499;-83
2021/10/19 16:27:28;;;;;;;22.73;13.40;;;;;;;;;;6216285;28;20048;-86
2021/10/19 16:30:30;;;;;;;22.13;12.45;;;;;;;;;;6228250;28;20072;-82
2021/10/19 16:33:31;;;;;;;24.10;14.40;;;;;;;;;;6215906;28;20044;-84
2021/10/19 16:36:52;;;;;;;33.90;19.20;;;;;;;;;;6219459;28;20120;-82
2021/10/19 16:39:54;;;;;;;36.05;19.35;;;;;;;;;;6244591;28;20491;-83
2021/10/19 16:42:55;;;;;;;38.95;21.20;;;;;;;;;;6225650;28;20043;-83
2021/10/19 16:45:57;;;;;;;33.63;18.58;;;;;;;;;;6222684;28;20061;-83
2021/10/19 16:49:00;;;;;;;38.65;22.55;;;;;;;;;;6195224;28;20247;-82
2021/10/19 16:52:02;;;;;;;;;;;;;;;;;;6234305;28;20049;-83
2021/10/19 16:55:05;;;;;;;39.22;25.75;;;;;;;;;;6242237;28;19992;-84
2021/10/19 16:58:07;;;;;;;43.35;27.27;;;;;;;;;;6231520;28;20052;-83
2021/10/19 17:01:09;;;;;;;35.00;21.33;;;;;;;;;;6221918;28;20088;-84
2021/10/19 17:04:11;;;;;;;36.67;21.13;;;;;;;;;;6217358;28;20113;-82
2021/10/19 17:07:13;;;;;;;27.05;18.75;;;;;;;;;;6233720;28;20124;-83
2021/10/19 17:10:15;;;;;;;36.90;20.52;;;;;;;;;;6207817;28;20046;-84
2021/10/19 17:13:19;;;;;;;41.35;23.90;;;;;;;;;;6200663;28;20569;-83
2021/10/19 17:16:21;;;;;;;33.83;21.23;;;;;;;;;;6216568;28;20057;-83
2021/10/19 17:19:23;;;;;;;33.40;20.13;;;;;;;;;;6217232;28;20168;-83
2021/10/19 17:22:24;;;;;;;27.65;16.88;;;;;;;;;;6238717;28;20053;-83
2021/10/19 17:25:26;;;;;;;26.30;16.60;;;;;;;;;;6215463;28;20537;-83
2021/10/19 17:28:28;;;;;;;28.33;16.95;;;;;;;;;;6214828;28;20042;-83
2021/10/19 17:31:30;;;;;;;34.22;17.85;;;;;;;;;;6204161;28;20129;-83
2021/10/19 17:34:32;;;;;;;29.52;17.33;;;;;;;;;;6222535;28;20507;-84
2021/10/19 17:37:34;;;;;;;32.42;18.45;;;;;;;;;;6200028;28;20046;-84
2021/10/19 17:40:36;;;;;;;31.60;18.00;;;;;;;;;;6216210;28;20042;-83
2021/10/19 17:43:38;;;;;;;31.70;19.20;;;;;;;;;;6233959;28;20046;-83
2021/10/19 17:46:39;;;;;;;33.10;18.70;;;;;;;;;;6229569;28;20060;-83
2021/10/19 17:49:41;;;;;;;30.73;17.13;;;;;;;;;;6211086;28;20046;-84